Riverview, Michigan
Current Conditions -  °F | °C
As of 2:54 AM on Friday 19 Dec 2014 (Local Time) from KONZ Reporting Station
Overcast Overcast  
Wind Chill: 21°   Ceiling: 1800
Heat Index: 28°   Visibility: 10mi
Dew Point: 27°   Wind: 7mph
Humidity: 93%   Direction: 350°N
Pressure: 30.19"   Gusts: NA
Location:  42.18°N, 83.19°W
Report Text: KONZ 190754Z AUTO 35006KT 10SM SCT014 OVC018 M02/M03 A3019 RMK AO2
Loading
Personal Weather Stations






























Interactive Weather Map New forecast layout! Learn more

10-Day Weather Forecast

Advertisements
Track Severe Weather on mobile